createdAt,value
2018-09-10T00:02:06.023Z,8.30
2018-09-10T00:04:34.218Z,7.97
2018-09-10T00:07:02.372Z,9.13
2018-09-10T00:12:04.930Z,8.90
2018-09-10T00:14:33.064Z,9.10
2018-09-10T00:17:01.277Z,8.27
2018-09-10T00:19:30.306Z,9.40
2018-09-10T00:21:58.447Z,8.73
2018-09-10T00:24:26.621Z,9.00
2018-09-10T00:26:54.795Z,8.10
2018-09-10T00:29:22.952Z,8.57
2018-09-10T00:31:51.075Z,9.07
2018-09-10T00:34:19.192Z,9.70
2018-09-10T00:36:47.304Z,8.60
2018-09-10T00:39:15.634Z,9.67
2018-09-10T00:41:43.832Z,9.77
2018-09-10T00:44:11.977Z,8.73
2018-09-10T00:46:40.286Z,8.30
2018-09-10T00:49:08.796Z,9.30
2018-09-10T00:51:36.902Z,8.33
2018-09-10T00:54:05.062Z,8.20
2018-09-10T00:56:33.252Z,8.50
2018-09-10T00:59:01.640Z,7.77
2018-09-10T01:01:29.906Z,8.07
2018-09-10T01:03:58.078Z,7.83
2018-09-10T01:06:27.276Z,7.70
2018-09-10T01:08:55.485Z,8.17
2018-09-10T01:11:23.910Z,7.73
2018-09-10T01:13:52.083Z,8.20
2018-09-10T01:16:21.904Z,7.97
2018-09-10T01:18:50.046Z,7.70
2018-09-10T01:21:18.197Z,7.37
2018-09-10T01:23:46.333Z,7.13
2018-09-10T01:26:14.500Z,7.60
2018-09-10T01:28:42.768Z,7.43
2018-09-10T01:31:11.003Z,7.20
2018-09-10T01:34:44.916Z,7.80
2018-09-10T01:37:13.286Z,6.83
2018-09-10T01:39:41.523Z,7.57
2018-09-10T01:42:09.674Z,6.93
2018-09-10T01:44:37.880Z,7.40
2018-09-10T01:47:06.082Z,6.30
2018-09-10T01:49:34.290Z,6.73
2018-09-10T01:52:02.474Z,7.57
2018-09-10T01:54:30.668Z,7.57
2018-09-10T01:56:58.822Z,6.10
2018-09-10T01:59:26.985Z,6.30
2018-09-10T02:01:55.106Z,7.77
2018-09-10T02:04:23.229Z,6.83
2018-09-10T02:06:51.390Z,5.93
2018-09-10T02:09:19.630Z,6.50
2018-09-10T02:11:47.834Z,6.20
2018-09-10T02:14:15.990Z,6.43
2018-09-10T02:16:44.210Z,6.20
2018-09-10T02:19:12.371Z,6.37
2018-09-10T02:21:40.521Z,5.97
2018-09-10T02:24:08.653Z,6.40
2018-09-10T02:26:36.756Z,5.50
2018-09-10T02:29:06.088Z,8.03
2018-09-10T02:31:34.880Z,6.83
2018-09-10T02:34:03.020Z,5.50
2018-09-10T02:36:31.366Z,5.70
2018-09-10T02:38:59.590Z,5.47
2018-09-10T02:41:28.552Z,6.07
2018-09-10T02:43:56.802Z,6.03
2018-09-10T02:46:24.958Z,6.03
2018-09-10T02:48:53.138Z,5.70
2018-09-10T02:51:21.537Z,5.40
2018-09-10T02:53:50.877Z,5.50
2018-09-10T02:56:19.171Z,5.40
2018-09-10T02:58:47.692Z,5.47
2018-09-10T03:01:15.770Z,4.43
2018-09-10T03:03:43.936Z,4.87
2018-09-10T03:06:12.086Z,5.23
2018-09-10T03:08:40.348Z,4.60
2018-09-10T03:11:08.526Z,5.00
2018-09-10T03:13:36.876Z,5.00
2018-09-10T03:16:05.001Z,5.00
2018-09-10T03:18:33.301Z,5.10
2018-09-10T03:21:01.522Z,4.90
2018-09-10T03:23:29.675Z,4.90
2018-09-10T03:25:57.847Z,4.77
2018-09-10T03:28:26.003Z,4.57
2018-09-10T03:30:54.126Z,5.13
2018-09-10T03:33:22.224Z,4.70
2018-09-10T03:35:50.351Z,4.30
2018-09-10T03:38:18.466Z,4.53
2018-09-10T03:40:46.640Z,4.90
2018-09-10T03:43:16.202Z,5.30
2018-09-10T03:45:44.339Z,4.30
2018-09-10T03:48:12.930Z,4.73
2018-09-10T03:50:41.071Z,4.73
2018-09-10T03:53:09.222Z,4.53
2018-09-10T03:55:37.357Z,5.00
2018-09-10T03:58:05.466Z,4.10
2018-09-10T04:02:55.102Z,4.50
2018-09-10T04:05:24.534Z,3.90
2018-09-10T04:07:52.682Z,3.73
2018-09-10T04:10:20.852Z,3.40
2018-09-10T04:12:49.276Z,3.77
2018-09-10T04:15:17.586Z,4.10
2018-09-10T04:17:45.682Z,3.33
2018-09-10T04:20:15.013Z,4.30
2018-09-10T04:22:43.346Z,3.30
2018-09-10T04:25:11.520Z,3.27
2018-09-10T04:27:39.902Z,3.80
2018-09-10T04:30:11.036Z,3.37
2018-09-10T04:32:39.200Z,3.57
2018-09-10T04:35:07.510Z,4.13
2018-09-10T04:37:35.992Z,3.47
2018-09-10T04:40:04.690Z,3.80
2018-09-10T04:42:32.899Z,3.97
2018-09-10T04:45:01.307Z,3.90
2018-09-10T04:47:29.438Z,4.03
2018-09-10T04:49:57.590Z,3.90
2018-09-10T04:52:25.824Z,4.20
2018-09-10T04:54:54.645Z,4.30
2018-09-10T04:57:22.808Z,4.40
2018-09-10T04:59:50.931Z,4.70
2018-09-10T05:02:19.064Z,4.57
2018-09-10T05:04:47.214Z,4.83
2018-09-10T05:07:15.366Z,5.00
2018-09-10T05:09:43.660Z,6.57
2018-09-10T05:12:11.911Z,5.03
2018-09-10T05:14:40.076Z,6.00
2018-09-10T05:17:08.258Z,5.77
2018-09-10T05:19:36.558Z,6.67
2018-09-10T05:22:05.825Z,6.77
2018-09-10T05:24:34.040Z,7.80
2018-09-10T05:27:02.224Z,7.67
2018-09-10T05:29:30.444Z,7.30
2018-09-10T05:31:58.796Z,7.50
2018-09-10T05:34:27.076Z,7.80
2018-09-10T05:36:55.274Z,8.00
2018-09-10T05:39:23.495Z,7.90
2018-09-10T05:41:51.722Z,6.73
2018-09-10T05:44:19.999Z,7.30
2018-09-10T05:46:48.252Z,7.50
2018-09-10T05:49:16.526Z,7.20
2018-09-10T05:51:44.662Z,7.10
2018-09-10T05:54:16.903Z,7.87
2018-09-10T05:56:45.102Z,6.77
2018-09-10T05:59:13.363Z,7.20
2018-09-10T06:01:41.488Z,7.07
2018-09-10T06:04:09.693Z,6.10
2018-09-10T06:06:38.015Z,6.17
2018-09-10T06:09:06.734Z,5.70
2018-09-10T06:11:35.081Z,5.00
2018-09-10T06:14:03.460Z,4.90
2018-09-10T06:16:32.503Z,4.97
2018-09-10T06:19:00.931Z,4.60
2018-09-10T06:21:29.112Z,4.77
2018-09-10T06:23:59.681Z,4.70
2018-09-10T06:26:27.822Z,4.53
2018-09-10T06:28:56.194Z,4.67
2018-09-10T06:31:24.715Z,4.80
2018-09-10T06:33:53.938Z,30.67
2018-09-10T06:36:22.761Z,5.10
2018-09-10T06:38:51.152Z,5.33
2018-09-10T06:41:19.402Z,4.80
2018-09-10T06:43:48.016Z,4.40
2018-09-10T06:46:16.222Z,4.83
2018-09-10T06:48:45.300Z,4.47
2018-09-10T06:51:13.462Z,4.63
2018-09-10T06:53:41.657Z,4.10
2018-09-10T06:56:09.859Z,4.10
2018-09-10T06:58:38.071Z,4.40
2018-09-10T07:01:06.294Z,4.13
2018-09-10T07:03:34.598Z,4.60
2018-09-10T07:06:02.762Z,4.70
2018-09-10T07:08:30.884Z,4.17
2018-09-10T07:10:59.030Z,4.40
2018-09-10T07:13:27.153Z,4.37
2018-09-10T07:15:55.286Z,4.00
2018-09-10T07:18:23.481Z,6.70
2018-09-10T07:20:51.975Z,3.43
2018-09-10T07:23:20.350Z,3.80
2018-09-10T07:25:48.484Z,5.40
2018-09-10T07:28:16.624Z,3.97
2018-09-10T07:30:44.740Z,3.00
2018-09-10T07:33:12.883Z,3.30
2018-09-10T07:35:43.214Z,3.20
2018-09-10T07:38:11.376Z,6.13
2018-09-10T07:40:40.941Z,4.53
2018-09-10T07:43:09.198Z,2.67
2018-09-10T07:45:38.240Z,2.30
2018-09-10T07:48:06.362Z,2.37
2018-09-10T07:50:34.540Z,2.73
2018-09-10T07:53:02.920Z,2.60
2018-09-10T07:55:31.060Z,2.37
2018-09-10T07:57:59.382Z,2.10
2018-09-10T08:00:27.620Z,3.27
2018-09-10T08:02:55.854Z,2.03
2018-09-10T08:05:24.013Z,1.97
2018-09-10T08:07:53.452Z,2.00
2018-09-10T08:10:21.538Z,1.60
2018-09-10T08:12:49.655Z,2.30
2018-09-10T08:15:17.850Z,1.83
2018-09-10T08:17:47.494Z,1.70
2018-09-10T08:20:15.670Z,5.00
2018-09-10T08:22:43.835Z,2.53
2018-09-10T08:25:12.039Z,2.70
2018-09-10T08:27:40.376Z,1.83
2018-09-10T08:30:08.709Z,2.10
2018-09-10T08:32:37.053Z,2.23
2018-09-10T08:35:05.192Z,2.10
2018-09-10T08:37:33.314Z,2.03
2018-09-10T08:40:02.056Z,3.30
2018-09-10T08:42:30.601Z,3.17
2018-09-10T08:44:59.903Z,2.10
2018-09-10T08:47:29.304Z,2.37
2018-09-10T08:49:57.448Z,2.17
2018-09-10T08:52:25.620Z,2.17
2018-09-10T08:54:55.129Z,1.60
2018-09-10T08:57:22.962Z,1.60
2018-09-10T08:59:51.056Z,1.73
2018-09-10T09:02:19.196Z,2.57
2018-09-10T09:04:47.344Z,2.67
2018-09-10T09:07:17.576Z,1.70
2018-09-10T09:09:45.771Z,1.70
2018-09-10T09:12:13.944Z,2.10
2018-09-10T09:14:42.084Z,2.00
2018-09-10T09:17:10.220Z,2.77
2018-09-10T09:19:38.431Z,1.93
2018-09-10T09:22:06.650Z,2.80
2018-09-10T09:24:35.053Z,2.53
2018-09-10T09:27:03.209Z,2.40
2018-09-10T09:29:32.617Z,2.20
2018-09-10T09:32:01.943Z,2.10
2018-09-10T09:35:00.955Z,1.97
2018-09-10T09:37:34.563Z,2.90
2018-09-10T09:40:08.231Z,4.50
2018-09-10T09:42:41.963Z,2.00
2018-09-10T09:45:15.604Z,2.60
2018-09-10T09:47:44.590Z,2.50
2018-09-10T09:50:12.730Z,2.20
2018-09-10T09:52:40.892Z,1.83
2018-09-10T09:55:09.244Z,1.97
2018-09-10T09:57:37.606Z,1.97
2018-09-10T10:00:10.212Z,2.20
2018-09-10T10:02:43.970Z,2.60
2018-09-10T10:05:12.158Z,2.00
2018-09-10T10:07:40.307Z,3.27
2018-09-10T10:10:08.478Z,1.50
2018-09-10T10:12:36.638Z,1.60
2018-09-10T10:15:04.971Z,1.90
2018-09-10T10:17:33.224Z,3.33
2018-09-10T10:20:01.440Z,4.90
2018-09-10T10:22:29.584Z,2.10
2018-09-10T10:24:57.716Z,2.03
2018-09-10T10:27:25.893Z,2.30
2018-09-10T10:29:54.196Z,2.27
2018-09-10T10:32:22.422Z,2.40
2018-09-10T10:34:50.660Z,2.50
2018-09-10T10:37:21.618Z,1.70
2018-09-10T10:39:49.948Z,2.00
2018-09-10T10:42:18.124Z,1.50
2018-09-10T10:44:46.284Z,1.60
2018-09-10T10:47:14.382Z,1.80
2018-09-10T10:49:44.065Z,1.57
2018-09-10T10:52:12.269Z,1.40
2018-09-10T10:54:45.404Z,1.50
2018-09-10T10:57:13.697Z,1.57
2018-09-10T10:59:41.874Z,2.37
2018-09-10T11:02:10.090Z,1.67
2018-09-10T11:04:38.670Z,2.07
2018-09-10T11:07:07.082Z,1.50
2018-09-10T11:09:35.386Z,1.33
2018-09-10T11:12:03.522Z,2.20
2018-09-10T11:14:31.675Z,1.60
2018-09-10T11:17:01.746Z,1.80
2018-09-10T11:19:30.011Z,1.70
2018-09-10T11:21:58.420Z,2.20
2018-09-10T11:24:26.622Z,2.33
2018-09-10T11:26:55.034Z,2.07
2018-09-10T11:29:23.144Z,2.13
2018-09-10T11:31:51.390Z,1.43
2018-09-10T11:34:19.562Z,1.53
2018-09-10T11:36:49.254Z,1.60
2018-09-10T11:39:17.428Z,1.60
2018-09-10T11:41:45.584Z,1.93
2018-09-10T11:44:13.756Z,2.10
2018-09-10T11:46:41.965Z,1.63
2018-09-10T11:49:10.097Z,1.50
2018-09-10T11:51:38.241Z,1.73
2018-09-10T11:54:06.423Z,1.80
2018-09-10T11:56:35.814Z,2.00
2018-09-10T11:59:04.108Z,2.20
2018-09-10T12:01:33.487Z,2.10
2018-09-10T12:04:01.611Z,1.97
2018-09-10T12:06:29.774Z,1.70
2018-09-10T12:08:58.090Z,1.83
2018-09-10T12:11:26.240Z,1.67
2018-09-10T12:13:54.475Z,1.83
2018-09-10T12:16:22.718Z,1.83
2018-09-10T12:18:50.921Z,1.80
2018-09-10T12:21:19.089Z,1.30
2018-09-10T12:23:47.217Z,1.40
2018-09-10T12:26:15.413Z,1.70
2018-09-10T12:28:43.729Z,1.90
2018-09-10T12:31:11.905Z,1.80
2018-09-10T12:33:40.063Z,2.47
2018-09-10T12:36:08.272Z,2.10
2018-09-10T12:38:36.480Z,1.40
2018-09-10T12:41:05.233Z,1.40
2018-09-10T12:43:33.450Z,1.83
2018-09-10T12:46:01.852Z,1.57
2018-09-10T12:48:31.148Z,1.33
2018-09-10T12:51:00.014Z,1.43
2018-09-10T12:53:28.163Z,1.53
2018-09-10T12:55:57.360Z,1.30
2018-09-10T12:58:25.498Z,1.27
2018-09-10T13:00:53.640Z,1.27
2018-09-10T13:03:22.416Z,1.40
2018-09-10T13:05:50.542Z,1.40
2018-09-10T13:08:19.820Z,1.37
2018-09-10T13:10:48.089Z,1.60
2018-09-10T13:13:16.236Z,2.10
2018-09-10T13:15:44.423Z,1.53
2018-09-10T13:18:12.559Z,1.87
2018-09-10T13:20:40.783Z,1.40
2018-09-10T13:23:08.965Z,1.50
2018-09-10T13:25:37.185Z,1.70
2018-09-10T13:28:05.457Z,1.63
2018-09-10T13:30:33.635Z,2.40
2018-09-10T13:33:02.849Z,1.60
2018-09-10T13:35:31.022Z,2.17
2018-09-10T13:37:59.312Z,1.80
2018-09-10T13:40:27.486Z,2.00
2018-09-10T13:42:55.900Z,1.70
2018-09-10T13:45:24.932Z,1.67
2018-09-10T13:47:53.099Z,1.23
2018-09-10T13:50:21.290Z,1.50
2018-09-10T13:52:57.893Z,1.50
2018-09-10T13:55:26.110Z,1.00
2018-09-10T13:57:54.225Z,1.50
2018-09-10T14:00:22.321Z,2.03
2018-09-10T14:02:50.469Z,2.17
2018-09-10T14:05:18.751Z,1.90
2018-09-10T14:07:46.924Z,6.03
2018-09-10T14:10:15.281Z,1.37
2018-09-10T14:12:43.452Z,1.80
2018-09-10T14:15:11.821Z,1.70
2018-09-10T14:17:40.024Z,1.80
2018-09-10T14:20:08.153Z,1.27
2018-09-10T14:22:36.363Z,1.63
2018-09-10T14:25:04.723Z,1.33
2018-09-10T14:27:33.008Z,1.40
2018-09-10T14:30:01.172Z,2.50
2018-09-10T14:32:29.319Z,1.60
2018-09-10T14:34:57.576Z,1.40
2018-09-10T14:37:25.915Z,1.83
2018-09-10T14:39:54.561Z,1.67
2018-09-10T14:42:22.704Z,1.90
2018-09-10T14:44:50.900Z,1.80
2018-09-10T14:47:19.112Z,1.67
2018-09-10T14:49:47.408Z,2.03
2018-09-10T14:52:15.590Z,1.60
2018-09-10T14:54:43.804Z,2.00
2018-09-10T14:57:12.041Z,1.63
2018-09-10T14:59:40.355Z,1.50
2018-09-10T15:02:08.668Z,1.50
2018-09-10T15:04:36.846Z,1.83
2018-09-10T15:07:05.025Z,1.80
2018-09-10T15:09:33.319Z,3.00
2018-09-10T15:12:01.587Z,1.77
2018-09-10T15:14:29.836Z,2.00
2018-09-10T15:16:58.076Z,1.77
2018-09-10T15:19:26.260Z,2.37
2018-09-10T15:21:54.483Z,2.10
2018-09-10T15:24:22.692Z,2.00
2018-09-10T15:26:51.496Z,1.70
2018-09-10T15:29:19.672Z,2.07
2018-09-10T15:31:47.943Z,2.00
2018-09-10T15:34:16.181Z,2.20
2018-09-10T15:36:44.366Z,2.00
2018-09-10T15:39:12.608Z,3.53
2018-09-10T15:41:42.320Z,2.30
2018-09-10T15:44:10.577Z,2.80
2018-09-10T15:46:38.802Z,2.03
2018-09-10T15:49:07.109Z,2.67
2018-09-10T15:51:35.256Z,2.10
2018-09-10T15:54:03.894Z,2.63
2018-09-10T15:56:32.087Z,1.80
2018-09-10T15:59:00.348Z,2.00
2018-09-10T16:01:28.569Z,2.03
2018-09-10T16:03:56.769Z,2.53
2018-09-10T16:06:25.006Z,2.10
2018-09-10T16:08:53.147Z,2.23
2018-09-10T16:11:21.338Z,2.27
2018-09-10T16:13:50.521Z,3.40
2018-09-10T16:16:18.711Z,2.67
2018-09-10T16:18:46.984Z,2.50
2018-09-10T16:21:15.196Z,2.40
2018-09-10T16:23:43.412Z,2.90
2018-09-10T16:26:11.724Z,2.50
2018-09-10T16:28:39.961Z,2.57
2018-09-10T16:31:08.279Z,3.17
2018-09-10T16:33:36.526Z,2.37
2018-09-10T16:36:05.520Z,3.30
2018-09-10T16:38:33.655Z,2.27
2018-09-10T16:41:01.892Z,2.50
2018-09-10T16:43:30.008Z,2.10
2018-09-10T16:45:58.258Z,2.13
2018-09-10T16:48:26.680Z,2.00
2018-09-10T16:50:55.423Z,1.77
2018-09-10T16:53:23.608Z,2.00
2018-09-10T16:55:51.780Z,1.50
2018-09-10T16:58:20.060Z,2.60
2018-09-10T17:00:48.359Z,1.80
2018-09-10T17:03:16.531Z,1.70
2018-09-10T17:05:46.661Z,2.17
2018-09-10T17:08:14.848Z,2.67
2018-09-10T17:10:42.998Z,2.10
2018-09-10T17:13:11.375Z,1.73
2018-09-10T17:15:39.775Z,2.00
2018-09-10T17:18:08.208Z,1.83
2018-09-10T17:20:37.435Z,1.80
2018-09-10T17:23:06.221Z,1.50
2018-09-10T17:25:34.606Z,2.00
2018-09-10T17:28:02.957Z,1.67
2018-09-10T17:30:31.128Z,2.20
2018-09-10T17:32:59.474Z,1.80
2018-09-10T17:35:27.844Z,2.00
2018-09-10T17:37:56.060Z,1.63
2018-09-10T17:40:24.294Z,1.70
2018-09-10T17:42:52.615Z,2.20
2018-09-10T17:45:20.783Z,2.37
2018-09-10T17:47:49.166Z,2.00
2018-09-10T17:50:19.211Z,2.00
2018-09-10T17:52:47.400Z,2.13
2018-09-10T17:55:15.584Z,1.87
2018-09-10T17:57:44.113Z,2.07
2018-09-10T18:00:12.300Z,1.80
2018-09-10T18:02:40.461Z,1.90
2018-09-10T18:05:08.776Z,2.23
2018-09-10T18:07:37.030Z,2.43
2018-09-10T18:10:06.122Z,2.10
2018-09-10T18:12:34.328Z,2.07
2018-09-10T18:15:02.678Z,2.60
2018-09-10T18:17:30.878Z,1.70
2018-09-10T18:19:59.668Z,2.23
2018-09-10T18:22:27.803Z,2.30
2018-09-10T18:24:56.067Z,1.80
2018-09-10T18:27:24.909Z,1.80
2018-09-10T18:29:53.123Z,2.20
2018-09-10T18:32:21.355Z,2.13
2018-09-10T18:34:49.537Z,2.20
2018-09-10T18:37:17.779Z,2.23
2018-09-10T18:39:46.003Z,2.20
2018-09-10T18:42:14.199Z,2.20
2018-09-10T18:44:42.434Z,2.30
2018-09-10T18:47:10.630Z,2.03
2018-09-10T18:49:40.003Z,2.17
2018-09-10T18:52:08.248Z,2.20
2018-09-10T18:54:36.564Z,2.23
2018-09-10T18:57:04.819Z,1.90
2018-09-10T18:59:33.057Z,2.80
2018-09-10T19:02:01.321Z,3.40
2018-09-10T19:04:29.538Z,2.70
2018-09-10T19:06:57.821Z,2.60
2018-09-10T19:09:26.571Z,2.73
2018-09-10T19:11:54.953Z,2.30
2018-09-10T19:14:23.831Z,2.67
2018-09-10T19:16:52.623Z,3.50
2018-09-10T19:19:20.951Z,2.57
2018-09-10T19:21:49.185Z,4.20
2018-09-10T19:24:18.123Z,3.80
2018-09-10T19:26:46.562Z,2.27
2018-09-10T19:29:14.854Z,2.53
2018-09-10T19:31:43.008Z,2.83
2018-09-10T19:34:11.269Z,3.07
2018-09-10T19:36:40.574Z,2.70
2018-09-10T19:39:10.901Z,2.43
2018-09-10T19:41:39.086Z,2.40
2018-09-10T19:44:07.307Z,2.70
2018-09-10T19:46:35.418Z,4.00
2018-09-10T19:49:03.625Z,2.93
2018-09-10T19:51:31.911Z,3.30
2018-09-10T19:54:00.120Z,2.87
2018-09-10T19:56:28.504Z,2.93
2018-09-10T19:58:56.755Z,2.80
2018-09-10T20:01:25.323Z,3.50
2018-09-10T20:03:54.118Z,3.63
2018-09-10T20:06:22.525Z,3.73
2018-09-10T20:08:51.381Z,2.77
2018-09-10T20:11:19.553Z,2.33
2018-09-10T20:13:47.834Z,2.60
2018-09-10T20:16:16.026Z,2.17
2018-09-10T20:18:44.243Z,2.53
2018-09-10T20:21:12.434Z,2.83
2018-09-10T20:23:41.239Z,2.20
2018-09-10T20:26:09.426Z,2.50
2018-09-10T20:28:37.560Z,3.00
2018-09-10T20:31:08.673Z,3.33
2018-09-10T20:33:42.949Z,3.70
2018-09-10T20:36:11.128Z,2.80
2018-09-10T20:38:40.124Z,2.73
2018-09-10T20:41:08.309Z,2.50
2018-09-10T20:43:36.494Z,3.03
2018-09-10T20:46:04.842Z,3.03
2018-09-10T20:48:33.133Z,3.10
2018-09-10T20:51:01.357Z,2.90
2018-09-10T20:53:29.503Z,3.43
2018-09-10T20:55:57.858Z,3.83
2018-09-10T20:58:26.009Z,3.33
2018-09-10T21:00:54.152Z,3.83
2018-09-10T21:03:22.372Z,3.27
2018-09-10T21:05:51.733Z,3.97
2018-09-10T21:08:20.275Z,4.00
2018-09-10T21:10:48.505Z,3.73
2018-09-10T21:13:16.712Z,3.50
2018-09-10T21:15:44.999Z,4.13
2018-09-10T21:18:14.079Z,3.20
2018-09-10T21:20:42.519Z,2.80
2018-09-10T21:23:11.686Z,3.17
2018-09-10T21:25:39.985Z,3.33
2018-09-10T21:28:08.241Z,3.30
2018-09-10T21:30:36.500Z,3.43
2018-09-10T21:33:04.680Z,3.70
2018-09-10T21:35:33.142Z,3.10
2018-09-10T21:38:01.473Z,3.90
2018-09-10T21:40:30.743Z,3.10
2018-09-10T21:42:58.976Z,3.60
2018-09-10T21:45:28.139Z,4.23
2018-09-10T21:47:57.748Z,3.30
2018-09-10T21:50:25.921Z,2.97
2018-09-10T21:52:55.896Z,3.00
2018-09-10T21:55:25.311Z,10.50
2018-09-10T21:57:53.633Z,4.10
2018-09-10T22:00:22.107Z,3.40
2018-09-10T22:02:50.379Z,2.47
2018-09-10T22:05:18.797Z,2.90
2018-09-10T22:07:46.949Z,2.73
2018-09-10T22:10:15.321Z,2.60
2018-09-10T22:12:43.499Z,2.80
2018-09-10T22:15:11.652Z,2.67
2018-09-10T22:17:40.323Z,3.03
2018-09-10T22:20:08.512Z,2.70
2018-09-10T22:22:36.925Z,3.10
2018-09-10T22:25:05.411Z,2.13
2018-09-10T22:27:33.651Z,2.27
2018-09-10T22:30:01.786Z,2.90
2018-09-10T22:32:30.336Z,2.40
2018-09-10T22:34:59.670Z,2.87
2018-09-10T22:37:27.811Z,2.63
2018-09-10T22:39:55.917Z,2.70
2018-09-10T22:42:25.720Z,2.90
2018-09-10T22:44:54.559Z,2.50
2018-09-10T22:47:22.908Z,2.83
2018-09-10T22:49:51.073Z,2.50
2018-09-10T22:52:19.312Z,2.63
2018-09-10T22:54:47.472Z,2.50
2018-09-10T22:57:15.834Z,2.30
2018-09-10T22:59:43.963Z,2.63
2018-09-10T23:02:12.210Z,2.33
2018-09-10T23:04:40.559Z,2.07
2018-09-10T23:07:08.731Z,1.90
2018-09-10T23:09:37.054Z,2.53
2018-09-10T23:12:05.283Z,2.17
2018-09-10T23:14:33.392Z,2.40
2018-09-10T23:17:01.643Z,1.90
2018-09-10T23:19:29.917Z,2.10
2018-09-10T23:21:58.247Z,2.20
2018-09-10T23:24:26.439Z,2.10
2018-09-10T23:26:54.799Z,2.20
2018-09-10T23:29:22.943Z,1.80
2018-09-10T23:31:51.287Z,2.00
2018-09-10T23:34:19.427Z,2.40
2018-09-10T23:36:47.726Z,2.13
2018-09-10T23:39:15.969Z,1.77
2018-09-10T23:41:44.091Z,2.03
2018-09-10T23:44:12.237Z,1.77
2018-09-10T23:46:40.551Z,2.40
2018-09-10T23:49:08.748Z,2.43
2018-09-10T23:51:36.938Z,2.13
2018-09-10T23:54:06.866Z,1.90
2018-09-10T23:56:35.043Z,2.37
2018-09-10T23:59:03.236Z,2.10
